1959 Tropical Low NOT_NAMED (1959092S10135)


IBTrACS version v04r00. Visit IBTrACS website for data access.
Please direct all questions to the IBTrACS Q and A forum

Storm track - Intensity - Wind Radii - Intensity Data - Source Data - All data

Summary Information

Storm ID 1959092S10135
Start Apr 2 06Z
Landfall Apr 5 17Z, Apr 5 21Z, Apr 6 11Z, Apr 6 15Z
Max Intensity 30 kt (Apr 4 06Z), 990 mb (Apr 5 17Z)
End Apr 11 23Z
ATCF IDs ,SH291959
Track status Best track data.

Storm track plot

Map of storm track

Intensity plots

Map of storm track

Radial wind information

No radial wind information for this storm


Position and Intensity Table

BASIN ISO_TIME_________ NATURE LAT LON WMO PRES BOM PRES DS824 WIND DS824 PRES
degrees north degrees east mb mb kts mb
SP 1959-04-02 06:00:00 TS -10.00 135.00 15 1006
SI 09:00:00 TS -9.98 134.60
SI 12:00:00 TS -9.96 134.21
SI 15:00:00 TS -9.94 133.82
SI 17:30:00 TS -9.95 133.80 1006 1006
SI 18:00:00 TS -9.95 133.93
SI 21:00:00 TS -9.95 133.69
SI 23:00:00 TS -9.98 133.71
SI 1959-04-03 00:00:00 TS -10.01 133.89
SI 03:00:00 TS -9.98 133.68
SI 06:00:00 TS -9.93 133.41 25 1002
SI 09:00:00 TS -9.90 133.09
SI 11:00:00 TS -9.89 132.84
SI 12:00:00 TS -9.90 132.72
SI 15:00:00 TS -9.94 132.37
SI 17:30:00 TS -9.99 132.11 1002 1002
SI 18:00:00 TS -10.00 132.05
SI 21:00:00 TS -10.07 131.76
SI 23:00:00 TS -10.12 131.57
SI 1959-04-04 00:00:00 TS -10.15 131.47
SI 03:00:00 TS -10.26 131.19
SI 06:00:00 TS -10.37 130.94 30 1000
SI 09:00:00 TS -10.50 130.71
SI 11:00:00 TS -10.59 130.58
SI 12:00:00 TS -10.63 130.51
SI 15:00:00 TS -10.79 130.32
SI 17:30:00 TS -10.96 130.17 1000 1000
SI 18:00:00 TS -11.00 130.15
SI 21:00:00 TS -11.25 130.02
SI 23:00:00 TS -11.46 129.96
SI 1959-04-05 00:00:00 TS -11.56 129.94
SI 03:00:00 TS -11.91 129.89
SI 06:00:00 TS -12.27 129.86
SI 09:00:00 TS -12.65 129.83
SI 11:00:00 TS -12.89 129.81
SI 12:00:00 TS -13.01 129.80
SI 15:00:00 TS -13.36 129.78
SI 17:30:00 TS -13.63 129.75 990 990
SI 18:00:00 TS -13.68 129.74
SI 21:00:00 TS -13.97 129.68
SI 23:00:00 TS -14.15 129.60
SI 1959-04-06 00:00:00 TS -14.23 129.54
SI 01:30:00 TS -14.35 129.43
SI 03:00:00 TS -14.46 129.30
SI 06:00:00 TS -14.66 129.01 20 1004
SI 06:30:00 TS -14.69 128.97
SI 09:00:00 TS -14.83 128.71
SI 11:00:00 TS -14.89 128.52
SI 12:00:00 TS -14.89 128.44
SI 15:00:00 TS -14.81 128.23
SI 17:30:00 TS -14.73 128.10 1004 1004
SI 18:00:00 TS -14.73 128.08 1004
SI 20:30:00 TS -14.74 127.98 1004 1004
SI 21:00:00 TS -14.74 127.96
SI 23:00:00 TS -14.80 127.89
SI 1959-04-07 00:00:00 TS -14.85 127.85
SI 03:00:00 TS -15.13 127.77
SI 06:00:00 TS -15.46 127.67
SI 09:00:00 TS -15.71 127.52
SI 11:00:00 TS -15.83 127.36
SI 12:00:00 TS -15.89 127.25
SI 15:00:00 TS -15.99 126.80
SI 18:00:00 TS -16.01 126.25
SI 19:00:00 TS -16.02 126.07 1006 1006
SI 21:00:00 TS -16.00 125.71
SI 23:00:00 TS -15.96 125.36
SI 1959-04-08 00:00:00 TS -15.92 125.20
SI 03:00:00 TS -15.76 124.76
SI 06:00:00 TS -15.58 124.36 25 1003
SI 09:00:00 TS -15.46 123.98
SI 11:00:00 TS -15.40 123.73
SI 12:00:00 TS -15.37 123.60
SI 15:00:00 TS -15.26 123.23
SI 18:00:00 TS -15.18 122.86
SI 19:00:00 TS -15.16 122.74 1003 1003
SI 21:00:00 TS -15.12 122.49
SI 23:00:00 TS -15.09 122.24
SI 1959-04-09 00:00:00 TS -15.07 122.12
SI 03:00:00 TS -15.01 121.73
SI 06:00:00 TS -14.97 121.35 25 1003
SI 09:00:00 TS -14.98 120.98
SI 11:00:00 TS -15.02 120.74
SI 12:00:00 TS -15.04 120.61
SI 15:00:00 TS -15.14 120.21
SI 18:00:00 TS -15.29 119.80
SI 19:00:00 TS -15.35 119.67 1003 1003
SI 21:00:00 TS -15.50 119.42
SI 23:00:00 TS -15.66 119.17
SI 1959-04-10 00:00:00 TS -15.74 119.05
SI 03:00:00 TS -15.98 118.68
SI 06:00:00 TS -16.24 118.35 20 1004
SI 09:00:00 TS -16.53 118.07
SI 11:00:00 TS -16.75 117.91
SI 12:00:00 TS -16.86 117.85
SI 15:00:00 TS -17.27 117.71
SI 18:00:00 TS -17.68 117.60
SI 19:00:00 TS -17.81 117.57 1004 1004
SI 21:00:00 TS -18.06 117.49
SI 23:00:00 TS -18.29 117.41
SI 1959-04-11 00:00:00 TS -18.34 117.43
SI 03:00:00 TS -18.61 117.37
SI 06:00:00 TS -18.85 117.30 20 1005
SI 09:00:00 TS -19.08 117.22
SI 11:00:00 TS -19.26 117.10
SI 12:00:00 TS -19.35 116.99
SI 15:00:00 TS -19.56 116.77
SI 18:00:00 TS -19.73 116.51
SI 19:00:00 NR -19.78 116.39 1005 1005
SI 21:00:00 NR -19.80 116.27
SI 23:00:00 NR -19.90 116.00

Source Information

Agency Information
USA bsh291959.txt
TOKYO
CMA
HKO
NEWDELHI
REUNION
BOM IDCKMSTM0S.csv:Line=2877:unnamed
NADI
WELLINGTON
DS824 aus_area.dat:282:NOT NAMED
TD9636 cons_worldwide_trop_cyclone_18710101-19891231-006:Line=5484
TD9635
NEUMANN
MLC

All available IBTrACS Data

SEASON BASIN SUBBASIN ISO_TIME_________ NATURE LAT LON WMO PRES WMO AGENCY DIST2LAND LANDFALL IFLAG USA AGENCY USA ATCF_ID USA LAT USA LON USA SSHS BOM LAT BOM LON BOM PRES BOM PRES_METHOD DS824 LAT DS824 LON DS824 STAGE DS824 WIND DS824 PRES TD9636 LAT TD9636 LON TD9636 STAGE STORM SPEED STORM DIR
Year degrees north degrees east mb km km degrees north degrees east 1 degrees north degrees east mb degrees north degrees east kts mb degrees north degrees east kts degrees
1959 SP EA 1959-04-02 06:00:00 TS -10.00 135.00 236 219 _________O____ -1 -10.00 135.00 TC 15 1006 8 273
1959 SI WA 09:00:00 TS -9.98 134.60 219 206 _________P____ -1 -9.98 134.60 TC 8 273
1959 SI WA 12:00:00 TS -9.96 134.21 206 194 _________P____ -1 -9.96 134.21 TC 8 273
1959 SI WA 15:00:00 TS -9.94 133.82 194 189 _________P____ -1 -9.94 133.82 TC 4 272
1959 SI WA 17:30:00 TS -9.95 133.80 1006 bom 194 191 ______O__P____ -1 -10.00 135.00 1006 -9.93 133.50 TC 2 96
1959 SI WA 18:00:00 TS -9.95 133.93 191 179 ______P__P____ -1 -10.00 134.93 -9.93 133.43 TC 2 267
1959 SI WA 21:00:00 TS -9.95 133.69 179 179 ______P__P____ -1 -9.98 134.54 -9.93 133.06 TC 3 263
1959 SI WA 23:00:00 TS -9.98 133.71 179 179 ______P__PO___ -1 -9.97 134.28 -9.94 132.81 TC -10.20 135.00 1 4 107
1959 SI WA 1959-04-03 00:00:00 TS -10.01 133.89 191 179 O_____P__PP___ jtwc_sh SH291959 -10.10 134.80 -1 -9.96 134.15 -9.94 132.69 TC -10.15 134.85 1 0 0
1959 SI WA 03:00:00 TS -9.98 133.68 179 169 P_____P__PP___ SH291959 -10.00 134.40 -1 -9.95 133.76 -9.96 132.34 TC -10.02 134.41 1 5 279
1959 SI WA 06:00:00 TS -9.93 133.41 176 169 O_____P__OP___ jtwc_sh SH291959 -9.90 134.00 -1 -9.94 133.38 -10.00 132.00 TC 25 1002 -9.91 133.97 1 6 278
1959 SI WA 09:00:00 TS -9.90 133.09 169 155 P_____P__PP___ SH291959 -9.83 133.59 -1 -9.94 133.01 -10.06 131.68 TC -9.83 133.56 1 7 274
1959 SI WA 11:00:00 TS -9.89 132.84 155 152 P_____P__PO___ SH291959 -9.80 133.33 -1 -9.95 132.76 -10.10 131.47 TC -9.80 133.30 1 7 270
1959 SI WA 12:00:00 TS -9.90 132.72 152 146 O_____P__PP___ jtwc_sh SH291959 -9.80 133.20 -1 -9.95 132.64 -10.13 131.37 TC -9.80 133.18 1 7 264
1959 SI WA 15:00:00 TS -9.94 132.37 146 134 P_____P__PP___ SH291959 -9.83 132.84 -1 -9.97 132.29 -10.22 131.09 TC -9.81 132.82 1 7 261
1959 SI WA 17:30:00 TS -9.99 132.11 1002 bom 134 134 P_____O__PP___ SH291959 -9.89 132.55 -1 -10.00 132.00 1002 -10.31 130.87 TC -9.86 132.55 1 6 258
1959 SI WA 18:00:00 TS -10.00 132.05 134 125 O_____P__PP___ jtwc_sh SH291959 -9.90 132.50 -1 -10.01 131.94 -10.33 130.82 TC -9.87 132.50 1 6 257
1959 SI WA 21:00:00 TS -10.07 131.76 125 125 P_____P__PP___ SH291959 -9.94 132.19 -1 -10.06 131.62 -10.47 130.58 TC -9.95 132.19 1 6 256
1959 SI WA 23:00:00 TS -10.12 131.57 130 130 P_____P__PO___ SH291959 -9.98 132.00 -1 -10.10 131.41 -10.57 130.43 TC -10.00 132.00 1 6 254
1959 SI WA 1959-04-04 00:00:00 TS -10.15 131.47 124 112 O_____P__PP___ jtwc_sh SH291959 -10.00 131.90 -1 -10.12 131.31 -10.62 130.36 TC -10.02 131.90 1 6 250
1959 SI WA 03:00:00 TS -10.26 131.19 112 101 P_____P__PP___ SH291959 -10.10 131.59 -1 -10.21 131.01 -10.80 130.17 TC -10.08 131.61 1 6 247
1959 SI WA 06:00:00 TS -10.37 130.94 103 90 O_____P__OP___ jtwc_sh SH291959 -10.20 131.30 -1 -10.32 130.75 -11.00 130.00 TC 30 1000 -10.14 131.33 1 5 243
1959 SI WA 09:00:00 TS -10.50 130.71 90 78 P_____P__PP___ SH291959 -10.25 131.04 -1 -10.45 130.51 -11.29 129.91 TC -10.23 131.07 1 5 239
1959 SI WA 11:00:00 TS -10.59 130.58 78 78 P_____P__PO___ SH291959 -10.28 130.88 -1 -10.56 130.36 -11.51 129.88 TC -10.30 130.90 1 5 235
1959 SI WA 12:00:00 TS -10.63 130.51 78 57 O_____P__PP___ jtwc_sh SH291959 -10.30 130.80 -1 -10.62 130.30 -11.63 129.86 TC -10.33 130.81 1 5 231
1959 SI WA 15:00:00 TS -10.79 130.32 60 49 P_____P__PP___ SH291959 -10.37 130.53 -1 -10.81 130.12 -11.99 129.85 TC -10.43 130.55 1 5 226
1959 SI WA 17:30:00 TS -10.96 130.17 1000 bom 44 44 P_____O__PP___ SH291959 -10.47 130.33 -1 -11.00 130.00 1000 -12.31 129.85 TC -10.53 130.34 1 5 220
1959 SI WA 18:00:00 TS -11.00 130.15 46 24 O_____P__PP___ jtwc_sh SH291959 -10.50 130.30 -1 -11.04 129.98 -12.37 129.85 TC -10.56 130.31 1 6 206
1959 SI WA 21:00:00 TS -11.25 130.02 24 10 P_____P__PP___ SH291959 -10.71 130.12 -1 -11.34 129.89 -12.77 129.87 TC -10.74 130.10 1 6 202
1959 SI WA 23:00:00 TS -11.46 129.96 10 10 P_____P__PO___ SH291959 -10.90 130.03 -1 -11.56 129.84 -13.02 129.89 TC -10.90 130.00 1 6 194
1959 SI WA 1959-04-05 00:00:00 TS -11.56 129.94 24 21 O_____P__PP___ jtwc_sh SH291959 -11.00 130.00 -1 -11.68 129.83 -13.15 129.89 TC -10.99 129.96 1 7 189
1959 SI WA 03:00:00 TS -11.91 129.89 24 24 P_____P__PP___ SH291959 -11.33 129.93 -1 -12.04 129.80 -13.52 129.91 TC -11.32 129.87 1 7 185
1959 SI WA 06:00:00 TS -12.27 129.86 60 55 O_____P__PP___ jtwc_sh SH291959 -11.70 129.90 -1 -12.41 129.79 -13.86 129.90 TC -11.71 129.83 1 7 184
1959 SI WA 09:00:00 TS -12.65 129.83 55 34 P_____P__PP___ SH291959 -12.09 129.84 -1 -12.78 129.80 -14.16 129.87 TC -12.12 129.81 1 8 186
1959 SI WA 11:00:00 TS -12.89 129.81 34 32 P_____P__PO___ SH291959 -12.36 129.81 -1 -13.01 129.80 -14.33 129.82 TC -12.40 129.80 1 7 187
1959 SI WA 12:00:00 TS -13.01 129.80 32 22 O_____P__PP___ jtwc_sh SH291959 -12.50 129.80 -1 -13.13 129.81 -14.41 129.80 TC -12.54 129.80 1 7 184
1959 SI WA 15:00:00 TS -13.36 129.78 11 0 P_____P__PP___ SH291959 -12.90 129.80 -1 -13.46 129.81 -14.59 129.68 TC -12.95 129.81 1 7 185
1959 SI WA 17:30:00 TS -13.63 129.75 990 bom 0 0 P_____O__PP___ SH291959 -13.23 129.80 -1 -13.70 129.80 990 4 -14.69 129.53 TC -13.30 129.82 1 7 187
1959 SI WA 18:00:00 TS -13.68 129.74 10 0 O_____P__OP___ jtwc_sh SH291959 -13.30 129.80 -1 -13.74 129.80 -14.70 129.50 TC -13.37 129.81 1 6 192
1959 SI WA 21:00:00 TS -13.97 129.68 0 0 P_____P__PP___ SH291959 -13.71 129.79 -1 -13.97 129.78 -14.69 129.24 TC -13.76 129.77 1 6 196
1959 SI WA 23:00:00 TS -14.15 129.60 0 0 P_____P__PO___ SH291959 -13.98 129.75 -1 -14.11 129.75 -14.66 129.05 TC -14.00 129.70 1 6 207
1959 SI WA 1959-04-06 00:00:00 TS -14.23 129.54 0 0 O_____P__PP___ jtwc_sh SH291959 -14.10 129.70 -1 -14.19 129.74 -14.64 128.95 TC -14.11 129.63 1 6 219
1959 SI WA 01:30:00 TS -14.35 129.43 bom 0 0 P_____O__PP___ SH291959 -14.27 129.59 -1 -14.30 129.70 -14.60 128.79 TC -14.28 129.50 1 7 225
1959 SI WA 03:00:00 TS -14.46 129.30 15 15 P_____P__PP___ SH291959 -14.43 129.44 -1 -14.43 129.66 -14.57 128.63 TC -14.43 129.35 1 7 232
1959 SI WA 06:00:00 TS -14.66 129.01 31 31 O_____P__OP___ jtwc_sh SH291959 -14.70 129.10 -1 -14.67 129.53 -14.50 128.30 TC 20 1004 -14.72 129.04 1 7 234
1959 SI WA 06:30:00 TS -14.69 128.97 bom 31 11 P_____O__PP___ SH291959 -14.75 129.05 -1 -14.70 129.50 -14.50 128.25 TC -14.76 128.99 1 7 239
1959 SI WA 09:00:00 TS -14.83 128.71 11 0 P_____P__PP___ SH291959 -15.00 128.78 -1 -14.67 129.25 -14.52 128.01 TC -14.96 128.75 1 6 246
1959 SI WA 11:00:00 TS -14.89 128.52 0 0 P_____P__PO___ SH291959 -15.10 128.58 -1 -14.57 129.00 -14.56 127.83 TC -15.10 128.60 1 6 257
1959 SI WA 12:00:00 TS -14.89 128.44 10 0 O_____P__PP___ jtwc_sh SH291959 -15.10 128.50 -1 -14.51 128.87 -14.58 127.73 TC -15.17 128.57 1 4 286
1959 SI WA 15:00:00 TS -14.81 128.23 0 0 P_____P__PP___ SH291959 -14.80 128.32 -1 -14.41 128.51 -14.67 127.45 TC -15.36 128.55 1 4 297
1959 SI WA 17:30:00 TS -14.73 128.10 1004 bom 0 0 P_____O__PP___ SH291959 -14.46 128.22 -1 -14.50 128.30 1004 -14.75 127.22 TC -15.49 128.57 1 3 299
1959 SI WA 18:00:00 TS -14.73 128.08 0 0 O_____P__PP___ jtwc_sh SH291959 -14.40 128.20 -1 -14.56 128.28 1004 -14.77 127.17 TC -15.51 128.57 1 2 268
1959 SI WA 20:30:00 TS -14.74 127.98 1004 bom 0 0 P_____O__PP___ SH291959 -14.15 128.09 -1 -14.90 128.20 1004 -14.87 126.93 TC -15.62 128.60 1 2 263
1959 SI WA 21:00:00 TS -14.74 127.96 0 0 P_____P__PP___ SH291959 -14.12 128.07 -1 -14.96 128.18 -14.89 126.88 TC -15.64 128.61 1 3 237
1959 SI WA 23:00:00 TS -14.80 127.89 0 0 P_____P__PO___ SH291959 -14.06 128.01 -1 -15.20 128.11 -14.97 126.69 TC -15.70 128.60 2 3 224
1959 SI WA 1959-04-07 00:00:00 TS -14.85 127.85 0 0 O_____P__PP___ jtwc_sh SH291959 -14.10 128.00 -1 -15.31 128.07 -15.01 126.59 TC -15.73 128.59 2 5 198
1959 SI WA 03:00:00 TS -15.13 127.77 0 0 P_____P__PP___ SH291959 -14.57 128.05 -1 -15.60 127.94 -15.13 126.28 TC -15.79 128.54 2 6 195
1959 SI WA 06:00:00 TS -15.46 127.67 0 0 O_____P__PP___ jtwc_sh SH291959 -15.20 128.10 -1 -15.84 127.78 -15.23 125.97 TC -15.83 128.42 2 6 203
1959 SI WA 09:00:00 TS -15.71 127.52 0 0 P_____P__PP___ SH291959 -15.67 128.10 -1 -16.01 127.58 -15.32 125.63 TC -15.87 128.21 2 6 219
1959 SI WA 11:00:00 TS -15.83 127.36 0 0 P_____P__PO___ SH291959 -15.91 128.00 -1 -16.09 127.42 -15.36 125.40 TC -15.90 128.00 2 6 236
1959 SI WA 12:00:00 TS -15.89 127.25 0 0 O_____P__PP___ jtwc_sh SH291959 -16.00 127.90 -1 -16.12 127.33 -15.38 125.28 TC -15.93 127.85 2 9 254
1959 SI WA 15:00:00 TS -15.99 126.80 0 0 P_____P__PP___ SH291959 -16.16 127.37 -1 -16.16 127.02 -15.41 124.90 TC -16.04 127.32 2 10 263
1959 SI WA 18:00:00 TS -16.01 126.25 0 0 O_____P__OP___ jtwc_sh SH291959 -16.20 126.70 -1 -16.13 126.64 -15.40 124.50 TC -16.14 126.70 2 10 268
1959 SI WA 19:00:00 TS -16.02 126.07 1006 bom 0 0 P_____O__PP___ SH291959 -16.22 126.50 -1 -16.10 126.50 1006 -15.37 124.36 TC -16.17 126.49 2 10 271
1959 SI WA 21:00:00 TS -16.00 125.71 0 0 P_____P__PP___ SH291959 -16.24 126.11 -1 -16.01 126.17 -15.30 124.06 TC -16.20 126.08 2 10 275
1959 SI WA 23:00:00 TS -15.96 125.36 0 0 P_____P__PO___ SH291959 -16.23 125.76 -1 -15.89 125.81 -15.23 123.76 TC -16.20 125.70 1 10 280
1959 SI WA 1959-04-08 00:00:00 TS -15.92 125.20 0 0 O_____P__PP___ jtwc_sh SH291959 -16.20 125.60 -1 -15.82 125.62 -15.19 123.61 TC -16.18 125.55 1 9 289
1959 SI WA 03:00:00 TS -15.76 124.76 0 0 P_____P__PP___ SH291959 -16.01 125.22 -1 -15.60 125.05 -15.08 123.15 TC -16.06 125.16 1 9 293
1959 SI WA 06:00:00 TS -15.58 124.36 bom 0 0 O_____O__OP___ jtwc_sh SH291959 -15.80 124.90 -1 -15.40 124.50 -15.00 122.70 TC 25 1003 -15.90 124.82 1 8 291
1959 SI WA 09:00:00 TS -15.46 123.98 44 44 P_____P__PP___ SH291959 -15.69 124.55 -1 -15.26 124.02 -14.95 122.27 TC -15.72 124.51 1 8 287
1959 SI WA 11:00:00 TS -15.40 123.73 78 78 P_____P__PO___ SH291959 -15.63 124.32 -1 -15.18 123.72 -14.94 121.99 TC -15.60 124.30 1 8 285
1959 SI WA 12:00:00 TS -15.37 123.60 88 88 O_____P__PP___ jtwc_sh SH291959 -15.60 124.20 -1 -15.14 123.57 -14.93 121.86 TC -15.55 124.18 1 8 285
1959 SI WA 15:00:00 TS -15.26 123.23 114 114 P_____P__PP___ SH291959 -15.45 123.85 -1 -15.06 123.14 -14.94 121.45 TC -15.42 123.84 1 7 285
1959 SI WA 18:00:00 TS -15.18 122.86 140 140 O_____P__PP___ jtwc_sh SH291959 -15.30 123.50 -1 -15.01 122.73 -14.99 121.06 TC -15.29 123.49 1 7 283
1959 SI WA 19:00:00 TS -15.16 122.74 1003 bom 147 147 P_____O__PP___ SH291959 -15.26 123.39 -1 -15.00 122.60 1003 -15.01 120.93 TC -15.25 123.37 1 7 279
1959 SI WA 21:00:00 TS -15.12 122.49 162 162 P_____P__PP___ SH291959 -15.20 123.16 -1 -14.97 122.32 -15.06 120.68 TC -15.17 123.14 1 7 278
1959 SI WA 23:00:00 TS -15.09 122.24 173 173 P_____P__PO___ SH291959 -15.14 122.92 -1 -14.95 122.04 -15.13 120.43 TC -15.10 122.90 1 7 278
1959 SI WA 1959-04-09 00:00:00 TS -15.07 122.12 178 178 O_____P__PP___ jtwc_sh SH291959 -15.10 122.80 -1 -14.94 121.90 -15.17 120.31 TC -15.05 122.78 1 7 279
1959 SI WA 03:00:00 TS -15.01 121.73 211 211 P_____P__PP___ SH291959 -14.94 122.40 -1 -14.94 121.49 -15.32 119.95 TC -14.92 122.42 1 8 278
1959 SI WA 06:00:00 TS -14.97 121.35 239 239 O_____P__OP___ jtwc_sh SH291959 -14.80 122.00 -1 -14.97 121.10 -15.50 119.60 TC 25 1003 -14.80 122.05 1 7 272
1959 SI WA 09:00:00 TS -14.98 120.98 263 263 P_____P__PP___ SH291959 -14.72 121.66 -1 -15.03 120.71 -15.72 119.23 TC -14.72 121.66 1 7 266
1959 SI WA 11:00:00 TS -15.02 120.74 286 286 P_____P__PO___ SH291959 -14.70 121.43 -1 -15.09 120.46 -15.89 119.00 TC -14.70 121.40 1 7 261
1959 SI WA 12:00:00 TS -15.04 120.61 294 286 O_____P__PP___ jtwc_sh SH291959 -14.70 121.30 -1 -15.13 120.33 -15.98 118.88 TC -14.70 121.26 1 8 257
1959 SI WA 15:00:00 TS -15.14 120.21 316 309 P_____P__PP___ SH291959 -14.71 120.86 -1 -15.26 119.97 -16.27 118.53 TC -14.74 120.83 1 8 252
1959 SI WA 18:00:00 TS -15.29 119.80 334 334 O_____P__PP___ jtwc_sh SH291959 -14.80 120.40 -1 -15.43 119.62 -16.59 118.20 TC -14.83 120.39 1 8 247
1959 SI WA 19:00:00 TS -15.35 119.67 1003 bom 336 336 P_____O__PP___ SH291959 -14.85 120.26 -1 -15.50 119.50 1003 -16.70 118.10 TC -14.88 120.25 1 8 241
1959 SI WA 21:00:00 TS -15.50 119.42 357 357 P_____P__PP___ SH291959 -14.98 119.99 -1 -15.65 119.25 -16.92 117.89 TC -14.98 119.97 1 9 237
1959 SI WA 23:00:00 TS -15.66 119.17 366 366 P_____P__PO___ SH291959 -15.13 119.73 -1 -15.82 119.01 -17.14 117.70 TC -15.10 119.70 1 9 236
1959 SI WA 1959-04-10 00:00:00 TS -15.74 119.05 375 375 O_____P__PP___ jtwc_sh SH291959 -15.20 119.60 -1 -15.91 118.89 -17.25 117.60 TC -15.15 119.57 1 9 236
1959 SI WA 03:00:00 TS -15.98 118.68 400 400 P_____P__PP___ SH291959 -15.39 119.18 -1 -16.20 118.54 -17.58 117.34 TC -15.34 119.19 1 8 234
1959 SI WA 06:00:00 TS -16.24 118.35 433 416 O_____P__OP___ jtwc_sh SH291959 -15.60 118.80 -1 -16.53 118.20 -17.90 117.10 TC 20 1004 -15.58 118.84 1 8 227
1959 SI WA 09:00:00 TS -16.53 118.07 416 397 P_____P__PP___ SH291959 -15.85 118.50 -1 -16.87 117.89 -18.20 116.89 TC -15.87 118.55 1 8 220
1959 SI WA 11:00:00 TS -16.75 117.91 400 390 P_____P__PO___ SH291959 -16.07 118.35 -1 -17.10 117.69 -18.39 116.77 TC -16.10 118.40 1 8 212
1959 SI WA 12:00:00 TS -16.86 117.85 383 356 O_____P__PP___ jtwc_sh SH291959 -16.20 118.30 -1 -17.21 117.59 -18.48 116.71 TC -16.23 118.34 1 8 201
1959 SI WA 15:00:00 TS -17.27 117.71 346 306 P_____P__PP___ SH291959 -16.68 118.23 -1 -17.56 117.32 -18.74 116.56 TC -16.66 118.21 1 9 196
1959 SI WA 18:00:00 TS -17.68 117.60 306 295 O_____P__PP___ jtwc_sh SH291959 -17.20 118.20 -1 -17.89 117.07 -18.99 116.42 TC -17.14 118.12 1 8 194
1959 SI WA 19:00:00 TS -17.81 117.57 1004 bom 295 275 P_____O__PP___ SH291959 -17.35 118.17 -1 -18.00 117.00 1004 -19.07 116.38 TC -17.30 118.10 1 8 196
1959 SI WA 21:00:00 TS -18.06 117.49 264 246 P_____P__PP___ SH291959 -17.62 118.11 -1 -18.21 116.86 -19.22 116.30 TC -17.61 118.05 1 8 197
1959 SI WA 23:00:00 TS -18.29 117.41 246 246 P_____P__PO___ SH291959 -17.88 118.04 -1 -18.40 116.74 -19.38 116.23 TC -17.90 118.00 1 6 192
1959 SI WA 1959-04-11 00:00:00 TS -18.34 117.43 246 214 O_____P__PP___ jtwc_sh SH291959 -18.00 118.00 -1 -18.50 116.68 -19.45 116.20 TC -18.03 117.97 1 5 186
1959 SI WA 03:00:00 TS -18.61 117.37 214 197 P_____P__PP___ SH291959 -18.36 117.86 -1 -18.76 116.53 -19.68 116.10 TC -18.41 117.86 1 5 194
1959 SI WA 06:00:00 TS -18.85 117.30 187 172 O_____P__OP___ jtwc_sh SH291959 -18.70 117.70 -1 -19.02 116.40 -19.90 116.00 TC 20 1005 -18.74 117.73 1 5 197
1959 SI WA 09:00:00 TS -19.08 117.22 172 148 P_____P___P___ SH291959 -19.02 117.52 -1 -19.26 116.29 TC -19.03 117.55 1 5 206
1959 SI WA 11:00:00 TS -19.26 117.10 148 146 P_____P___O___ SH291959 -19.21 117.38 -1 -19.41 116.23 TC -19.20 117.40 1 7 220
1959 SI WA 12:00:00 TS -19.35 116.99 146 123 O_____P___P___ jtwc_sh SH291959 -19.30 117.30 -1 -19.49 116.19 TC -19.28 117.31 1 6 226
1959 SI WA 15:00:00 TS -19.56 116.77 111 101 P_____P___P___ SH291959 -19.52 117.02 -1 -19.71 116.11 TC -19.48 117.01 1 6 229
1959 SI WA 18:00:00 TS -19.73 116.51 102 91 O_____P___P___ jtwc_sh SH291959 -19.70 116.70 -1 -19.93 116.03 TC -19.65 116.65 1 6 238
1959 SI WA 19:00:00 NR -19.78 116.39 1005 bom 94 94 ______O___P___ SH291959 -1 -20.00 116.00 1005 TC -19.71 116.53 1 5 253
1959 SI WA 21:00:00 NR -19.80 116.27 98 98 __________P___ SH291959 -1 TC -19.80 116.27 1 6 252
1959 SI WA 23:00:00 NR -19.90 116.00 107 __________O___ SH291959 -1 TC -19.90 116.00 1 8 249